Flight Track Log - Related Links

Times and Time Zones

All times are in EDT time to prevent confusion due to time zone crossing. See the N4978T flight status page for this flight to view local times or setup timezone preferences in your user account.

Time Position Orientation Groundspeed Altitude Reporting Facility
EDT Latitude Longitude Course Direction KTS MPH feet Rate Location/Type
Tue 07:26:36 PM 34.3781 -118.9989 101° East 162 186 5,700  Level Los Angeles Center
Tue 07:26:51 PM 34.3731 -118.9883 120° Southeast 147 169 5,700  Level Los Angeles Center
Tue 07:27:38 PM 34.3667 -118.9511 102° East 150 173 5,700  Level Los Angeles Center
Tue 07:28:40 PM 34.3589 -118.8994 100° East 155 178 5,700  Level Los Angeles Center
Tue 07:29:42 PM 34.3472 -118.8461 105° East 163 188 5,700  Level Los Angeles Center
Tue 07:30:44 PM 34.3289 -118.8008 116° Southeast 152 175 5,700  Level Los Angeles Center
Tue 07:31:46 PM 34.3119 -118.7553 114° Southeast 151 174 5,700  Level Los Angeles Center
Tue 07:32:00 PM 21.0802 -77.1177 101° East  Level Estimated
Tue 07:32:48 PM 34.2922 -118.6981 113° Southeast 151 174 5,700  Level Los Angeles Center
Tue 07:33:50 PM 34.2764 -118.6500 112° Southeast 152 175 5,700 -50 Level Los Angeles Center
Tue 07:34:47 PM 34.2667 -118.6000 103° East 153 176 5,600 -51 Descending Southern California TRACON
Tue 07:35:47 PM 34.2500 -118.5500 112° Southeast 152 175 5,600  Level Southern California TRACON
Tue 07:36:41 PM 34.2333 -118.5167 121° Southeast 150 173 5,600  Level Southern California TRACON
Tue 07:37:47 PM 34.2167 -118.4667 112° Southeast 148 170 5,600  Level Southern California TRACON
Tue 07:38:47 PM 34.2000 -118.4167 112° Southeast 145 167 5,600  Level Southern California TRACON
Tue 07:39:47 PM 34.1833 -118.3667 112° Southeast 166 191 5,600 -300 Level Southern California TRACON
Tue 07:40:47 PM 34.1667 -118.3167 112° Southeast 137 158 5,000 -750 Descending Southern California TRACON
Tue 07:41:47 PM 34.1333 -118.3167 180° South 115 132 4,100 -893 Descending Southern California TRACON
Tue 07:42:48 PM 34.1000 -118.3333 202° Southwest 133 153 3,200 -694 Descending Southern California TRACON
Tue 07:43:48 PM 34.0833 -118.3667 239° Southwest 117 135 2,700 -600 Descending Southern California TRACON
Tue 07:44:48 PM 34.0667 -118.3833 220° Southwest 108 124 2,000 -750 Descending Southern California TRACON
Tue 07:45:48 PM 34.0500 -118.4167 239° Southwest 92 106 1,200 -600 Descending Southern California TRACON
Tue 07:46:48 PM 34.0333 -118.4333 220° Southwest 66 76 800 -333 Descending Southern California TRACON
Tue 07:47:18 PM 34.0269 -118.4381 211° Southwest 84 97 700 -267 Descending Los Angeles Center
Tue 07:48:18 PM 34.0175 -118.4506 228° Southwest 73 84 400 -300 Descending Los Angeles Center

Login

Don't have an account? Register now (free) for customized features, flight alerts, and more!